Time,TemperatureF,DewpointF,PressureIn,WindDirection,WindDirectionDegrees,WindSpeedMPH,WindSpeedGustMPH,Humidity,HourlyPrecipIn,Conditions,Clouds,dailyrainin,SoftwareType,DateUTC
2013-01-31 00:05:00,51.6,50.8,29.40,SSE,161,0.0,2.0,97,0.00,-RA,,0.00,WeatherDisplay:10.37,2013-01-31 05:05:00,
2013-01-31 00:10:00,51.8,51.0,29.40,South,179,0.0,3.0,97,0.00,-RA,,0.00,WeatherDisplay:10.37,2013-01-31 05:10:00,
2013-01-31 00:15:00,52.1,51.2,29.39,SSE,166,1.0,6.0,97,0.00,-RA,,0.00,WeatherDisplay:10.37,2013-01-31 05:15:00,
2013-01-31 00:25:00,53.0,52.2,29.39,South,180,0.0,8.0,97,0.00,-RA,,0.01,WeatherDisplay:10.37,2013-01-31 05:25:00,
2013-01-31 00:30:00,53.0,52.2,29.38,South,184,2.0,10.0,97,0.00,-RA,,0.01,WeatherDisplay:10.37,2013-01-31 05:30:00,
2013-01-31 00:40:00,52.9,52.1,29.36,South,172,0.0,5.0,97,0.00,-RA,,0.01,WeatherDisplay:10.37,2013-01-31 05:40:00,
2013-01-31 00:45:00,53.0,52.2,29.36,South,170,1.0,6.0,97,0.00,-RA,,0.01,WeatherDisplay:10.37,2013-01-31 05:45:00,
2013-01-31 00:50:00,53.1,52.3,29.35,South,177,1.0,6.0,97,0.00,-RA,,0.01,WeatherDisplay:10.37,2013-01-31 05:50:00,
2013-01-31 01:00:00,53.4,52.5,29.34,South,182,1.0,7.0,97,0.00,-RA,,0.01,WeatherDisplay:10.37,2013-01-31 06:00:00,
2013-01-31 01:10:00,54.2,53.3,29.33,South,180,2.0,13.0,97,0.00,OVC,,0.01,WeatherDisplay:10.37,2013-01-31 06:10:00,
2013-01-31 01:15:00,54.4,53.6,29.33,South,172,2.0,12.0,97,0.00,OVC,,0.01,WeatherDisplay:10.37,2013-01-31 06:15:00,
2013-01-31 01:20:00,54.3,53.5,29.32,South,170,1.0,7.0,97,0.00,-DZ,,0.01,WeatherDisplay:10.37,2013-01-31 06:20:00,
2013-01-31 01:25:00,54.3,53.4,29.31,South,181,3.0,7.0,97,0.00,-DZ,,0.01,WeatherDisplay:10.37,2013-01-31 06:25:00,
2013-01-31 01:30:00,54.5,53.7,29.31,South,176,3.0,13.0,97,0.00,-DZ,,0.01,WeatherDisplay:10.37,2013-01-31 06:30:00,
2013-01-31 01:35:00,54.4,53.6,29.30,South,179,2.0,10.0,97,0.00,-DZ,,0.01,WeatherDisplay:10.37,2013-01-31 06:35:00,
2013-01-31 01:40:00,54.5,53.6,29.30,South,184,2.0,7.0,97,0.00,-DZ,,0.01,WeatherDisplay:10.37,2013-01-31 06:40:00,
2013-01-31 01:45:00,54.9,54.1,29.30,South,172,5.0,12.0,97,0.00,-DZ,,0.01,WeatherDisplay:10.37,2013-01-31 06:45:00,
2013-01-31 01:50:00,54.7,53.9,29.29,South,181,5.0,12.0,97,0.00,-DZ,,0.01,WeatherDisplay:10.37,2013-01-31 06:50:00,
2013-01-31 01:55:00,55.3,54.4,29.28,South,181,3.0,14.0,97,0.00,-DZ,,0.01,WeatherDisplay:10.37,2013-01-31 06:55:00,
2013-01-31 02:00:00,55.4,54.6,29.28,South,187,5.0,14.0,97,0.00,-DZ,,0.01,WeatherDisplay:10.37,2013-01-31 07:00:00,
2013-01-31 02:05:00,55.9,55.1,29.27,South,190,6.0,23.0,97,0.00,-DZ,,0.01,WeatherDisplay:10.37,2013-01-31 07:05:00,
2013-01-31 02:10:00,56.4,55.6,29.27,South,190,3.0,16.0,97,0.01,-DZ,,0.02,WeatherDisplay:10.37,2013-01-31 07:10:00,
2013-01-31 02:15:00,56.2,55.4,29.26,South,185,3.0,13.0,97,0.00,-DZ,,0.02,WeatherDisplay:10.37,2013-01-31 07:15:00,
2013-01-31 02:20:00,55.9,54.8,29.26,South,188,1.0,9.0,96,0.00,-DZ,,0.02,WeatherDisplay:10.37,2013-01-31 07:20:00,
2013-01-31 02:25:00,55.5,54.4,29.26,South,185,2.0,9.0,96,0.01,-DZ,,0.03,WeatherDisplay:10.37,2013-01-31 07:25:00,
2013-01-31 02:30:00,55.3,54.2,29.25,South,180,1.0,5.0,96,0.00,-DZ,,0.03,WeatherDisplay:10.37,2013-01-31 07:30:00,
2013-01-31 02:35:00,55.3,54.1,29.25,South,178,2.0,8.0,96,0.00,-DZ,,0.03,WeatherDisplay:10.37,2013-01-31 07:35:00,
2013-01-31 02:40:00,55.4,54.6,29.23,South,185,1.0,8.0,97,0.00,-DZ,,0.03,WeatherDisplay:10.37,2013-01-31 07:40:00,
2013-01-31 02:45:00,55.2,54.4,29.22,South,186,2.0,7.0,97,0.00,-DZ,,0.03,WeatherDisplay:10.37,2013-01-31 07:45:00,
2013-01-31 02:50:00,55.7,54.8,29.21,South,184,3.0,17.0,97,0.00,-DZ,,0.03,WeatherDisplay:10.37,2013-01-31 07:50:00,
2013-01-31 02:55:00,55.8,55.0,29.21,South,174,2.0,7.0,97,0.00,-DZ,,0.03,WeatherDisplay:10.37,2013-01-31 07:55:00,
2013-01-31 03:00:00,56.0,55.2,29.20,South,174,3.0,9.0,97,0.00,-DZ,,0.03,WeatherDisplay:10.37,2013-01-31 08:00:00,
2013-01-31 03:05:00,56.0,55.1,29.19,South,185,1.0,8.0,97,0.00,-DZ,,0.03,WeatherDisplay:10.37,2013-01-31 08:05:00,
2013-01-31 03:10:00,55.7,54.9,29.18,South,183,5.0,10.0,97,0.00,-DZ,,0.03,WeatherDisplay:10.37,2013-01-31 08:10:00,
2013-01-31 03:15:00,56.0,55.1,29.17,SSW,195,2.0,6.0,97,0.00,-DZ,,0.03,WeatherDisplay:10.37,2013-01-31 08:15:00,
2013-01-31 03:20:00,56.0,55.2,29.17,SSW,193,5.0,16.0,97,0.00,-RA,,0.03,WeatherDisplay:10.37,2013-01-31 08:20:00,
2013-01-31 03:25:00,56.2,55.3,29.16,South,172,2.0,9.0,97,0.00,-RA,,0.03,WeatherDisplay:10.37,2013-01-31 08:25:00,
2013-01-31 03:30:00,56.1,55.2,29.15,South,179,1.0,6.0,97,0.00,-RA,,0.03,WeatherDisplay:10.37,2013-01-31 08:30:00,
2013-01-31 03:35:00,56.1,55.0,29.15,South,189,3.0,12.0,96,0.00,-RA,,0.03,WeatherDisplay:10.37,2013-01-31 08:35:00,
2013-01-31 03:40:00,56.7,55.9,29.15,South,185,5.0,18.0,97,0.00,-RA,,0.03,WeatherDisplay:10.37,2013-01-31 08:40:00,
2013-01-31 03:45:00,56.7,55.6,29.14,South,182,5.0,12.0,96,0.00,-RA,,0.03,WeatherDisplay:10.37,2013-01-31 08:45:00,
2013-01-31 03:50:00,56.2,55.1,29.14,South,184,5.0,10.0,96,0.00,-RA,,0.03,WeatherDisplay:10.37,2013-01-31 08:50:00,
2013-01-31 03:55:00,56.6,55.4,29.13,South,188,3.0,10.0,96,0.00,-RA,,0.03,WeatherDisplay:10.37,2013-01-31 08:55:00,
2013-01-31 04:00:00,56.7,55.5,29.12,South,185,5.0,10.0,96,0.00,-RA,,0.03,WeatherDisplay:10.37,2013-01-31 09:00:00,
2013-01-31 04:05:00,57.0,56.1,29.11,South,189,6.0,15.0,97,0.00,-RA,,0.03,WeatherDisplay:10.37,2013-01-31 09:05:00,
2013-01-31 04:10:00,57.3,56.1,29.10,South,183,3.0,9.0,96,0.00,-RA,,0.03,WeatherDisplay:10.37,2013-01-31 09:10:00,
2013-01-31 04:15:00,57.4,56.3,29.09,South,188,8.0,14.0,96,0.00,-RA,,0.03,WeatherDisplay:10.37,2013-01-31 09:15:00,
2013-01-31 04:20:00,57.6,56.2,29.09,South,182,3.0,10.0,95,0.00,-RA,,0.03,WeatherDisplay:10.37,2013-01-31 09:20:00,
2013-01-31 04:25:00,58.0,56.9,29.08,South,189,6.0,16.0,96,0.00,-RA,,0.03,WeatherDisplay:10.37,2013-01-31 09:25:00,
2013-01-31 04:30:00,58.2,56.5,29.07,South,186,3.0,23.0,94,0.00,-RA,,0.03,WeatherDisplay:10.37,2013-01-31 09:30:00,
2013-01-31 04:35:00,58.2,56.5,29.07,South,183,2.0,18.0,94,0.00,-RA,,0.03,WeatherDisplay:10.37,2013-01-31 09:35:00,
2013-01-31 04:40:00,58.1,56.4,29.07,SSW,193,7.0,22.0,94,0.00,-RA,,0.03,WeatherDisplay:10.37,2013-01-31 09:40:00,
2013-01-31 04:45:00,58.1,56.4,29.07,South,187,5.0,10.0,94,0.00,-RA,,0.03,WeatherDisplay:10.37,2013-01-31 09:45:00,
2013-01-31 04:50:00,57.6,55.6,29.07,South,173,3.0,10.0,93,0.00,-RA,,0.03,WeatherDisplay:10.37,2013-01-31 09:50:00,
2013-01-31 04:55:00,57.6,56.1,29.05,South,171,7.0,16.0,95,0.00,-RA,,0.03,WeatherDisplay:10.37,2013-01-31 09:55:00,
2013-01-31 05:00:00,57.6,56.2,29.06,South,182,2.0,10.0,95,0.00,-RA,,0.03,WeatherDisplay:10.37,2013-01-31 10:00:00,
2013-01-31 05:05:00,57.4,55.7,29.05,South,177,5.0,17.0,94,0.00,-RA,,0.03,WeatherDisplay:10.37,2013-01-31 10:05:00,
2013-01-31 05:10:00,57.9,56.8,29.05,South,189,2.0,21.0,96,0.00,-RA,,0.03,WeatherDisplay:10.37,2013-01-31 10:10:00,
2013-01-31 05:15:00,57.7,56.3,29.03,South,187,5.0,10.0,95,0.01,-RA,,0.04,WeatherDisplay:10.37,2013-01-31 10:15:00,
2013-01-31 05:20:00,57.4,56.0,29.03,South,179,3.0,12.0,95,0.01,-RA,,0.05,WeatherDisplay:10.37,2013-01-31 10:20:00,
2013-01-31 05:25:00,57.9,56.7,29.02,South,185,3.0,18.0,96,0.00,-RA,,0.05,WeatherDisplay:10.37,2013-01-31 10:25:00,
2013-01-31 05:30:00,57.8,56.3,29.02,South,184,2.0,22.0,95,0.02,-RA,,0.07,WeatherDisplay:10.37,2013-01-31 10:30:00,
2013-01-31 05:35:00,57.5,56.1,29.00,South,169,2.0,10.0,95,0.01,-RA,,0.08,WeatherDisplay:10.37,2013-01-31 10:35:00,
2013-01-31 05:40:00,57.5,56.4,28.99,South,173,5.0,15.0,96,0.00,-RA,,0.08,WeatherDisplay:10.37,2013-01-31 10:40:00,
2013-01-31 05:45:00,57.5,56.4,28.98,South,169,3.0,12.0,96,0.01,-RA,,0.09,WeatherDisplay:10.37,2013-01-31 10:45:00,
2013-01-31 05:50:00,57.4,56.3,28.97,South,175,3.0,15.0,96,0.01,-RA,,0.10,WeatherDisplay:10.37,2013-01-31 10:50:00,
2013-01-31 05:55:00,57.2,56.0,28.97,South,177,5.0,10.0,96,0.01,-RA,,0.11,WeatherDisplay:10.37,2013-01-31 10:55:00,
2013-01-31 06:00:00,57.3,56.2,28.96,South,169,3.0,12.0,96,0.01,-RA,,0.12,WeatherDisplay:10.37,2013-01-31 11:00:00,
2013-01-31 06:05:00,57.4,56.3,28.96,South,173,5.0,9.0,96,0.01,-RA,,0.13,WeatherDisplay:10.37,2013-01-31 11:05:00,
2013-01-31 06:10:00,57.6,56.5,28.96,South,178,2.0,12.0,96,0.00,-RA,,0.13,WeatherDisplay:10.37,2013-01-31 11:10:00,
2013-01-31 06:15:00,57.4,56.3,28.96,South,176,3.0,14.0,96,0.00,-RA,,0.13,WeatherDisplay:10.37,2013-01-31 11:15:00,
2013-01-31 06:20:00,57.1,56.0,28.96,South,177,3.0,8.0,96,0.01,RA,,0.14,WeatherDisplay:10.37,2013-01-31 11:20:00,
2013-01-31 06:25:00,57.2,56.1,28.95,South,184,3.0,13.0,96,0.00,RA,,0.14,WeatherDisplay:10.37,2013-01-31 11:25:00,
2013-01-31 06:30:00,57.2,56.1,28.97,South,189,3.0,14.0,96,0.00,OVC,,0.14,WeatherDisplay:10.37,2013-01-31 11:30:00,
2013-01-31 06:35:00,57.2,56.1,28.97,South,188,3.0,7.0,96,0.01,RA,,0.15,WeatherDisplay:10.37,2013-01-31 11:35:00,
2013-01-31 06:40:00,57.1,55.9,28.98,South,186,3.0,16.0,96,0.00,RA,,0.15,WeatherDisplay:10.37,2013-01-31 11:40:00,
2013-01-31 06:45:00,57.3,56.2,28.99,South,191,6.0,12.0,96,0.02,RA,,0.17,WeatherDisplay:10.37,2013-01-31 11:45:00,
2013-01-31 06:50:00,57.6,56.7,28.98,SSW,197,3.0,10.0,97,0.00,RA,,0.17,WeatherDisplay:10.37,2013-01-31 11:50:00,
2013-01-31 06:55:00,57.7,56.6,28.99,SSW,200,3.0,14.0,96,0.01,RA,,0.18,WeatherDisplay:10.37,2013-01-31 11:55:00,
2013-01-31 07:00:00,57.5,56.4,28.99,SSW,197,2.0,7.0,96,0.00,RA,,0.18,WeatherDisplay:10.37,2013-01-31 12:00:00,
2013-01-31 07:05:00,57.7,56.5,28.99,South,189,2.0,12.0,96,0.00,OVC,,0.18,WeatherDisplay:10.37,2013-01-31 12:05:00,
2013-01-31 07:10:00,57.6,56.5,28.99,South,185,2.0,8.0,96,0.01,RA,,0.19,WeatherDisplay:10.37,2013-01-31 12:10:00,
2013-01-31 07:15:00,57.2,55.8,28.98,South,181,3.0,10.0,95,0.00,RA,,0.19,WeatherDisplay:10.37,2013-01-31 12:15:00,
2013-01-31 07:25:00,56.7,55.3,28.97,South,184,3.0,9.0,95,0.00,-RA,,0.19,WeatherDisplay:10.37,2013-01-31 12:25:00,
2013-01-31 07:30:00,56.5,55.1,28.96,SSE,166,2.0,7.0,95,0.00,-RA,,0.19,WeatherDisplay:10.37,2013-01-31 12:30:00,
2013-01-31 07:35:00,56.1,54.7,28.95,SSE,160,0.0,2.0,95,0.00,-RA,,0.19,WeatherDisplay:10.37,2013-01-31 12:35:00,
2013-01-31 07:40:00,55.9,54.8,28.94,South,171,0.0,3.0,96,0.00,-RA,,0.19,WeatherDisplay:10.37,2013-01-31 12:40:00,
2013-01-31 07:45:00,55.6,54.5,28.94,South,172,1.0,6.0,96,0.00,-RA,,0.19,WeatherDisplay:10.37,2013-01-31 12:45:00,
2013-01-31 07:50:00,55.3,54.2,28.94,South,179,1.0,4.0,96,0.00,-RA,,0.19,WeatherDisplay:10.37,2013-01-31 12:50:00,
2013-01-31 07:55:00,54.9,53.5,28.94,South,171,0.0,7.0,95,0.00,-RA,,0.19,WeatherDisplay:10.37,2013-01-31 12:55:00,
2013-01-31 08:00:00,54.5,53.1,28.94,SSE,168,2.0,7.0,95,0.00,-RA,,0.19,WeatherDisplay:10.37,2013-01-31 13:00:00,
2013-01-31 08:05:00,54.3,53.1,28.93,SSW,193,1.0,7.0,96,0.00,-RA,,0.19,WeatherDisplay:10.37,2013-01-31 13:05:00,
2013-01-31 08:10:00,54.2,53.1,28.92,South,191,2.0,7.0,96,0.00,-RA,,0.19,WeatherDisplay:10.37,2013-01-31 13:10:00,
2013-01-31 08:15:00,54.1,53.0,28.91,SSE,163,2.0,8.0,96,0.00,-RA,,0.19,WeatherDisplay:10.37,2013-01-31 13:15:00,
2013-01-31 08:25:00,54.1,52.7,28.92,South,186,1.0,5.0,95,0.00,BKN,,0.19,WeatherDisplay:10.37,2013-01-31 13:25:00,
2013-01-31 08:30:00,54.1,52.7,28.92,South,185,2.0,8.0,95,0.00,BKN,,0.19,WeatherDisplay:10.37,2013-01-31 13:30:00,
2013-01-31 08:40:00,54.3,52.7,28.91,South,178,7.0,17.0,94,0.00,BKN,,0.19,WeatherDisplay:10.37,2013-01-31 13:40:00,
2013-01-31 08:45:00,54.5,52.5,28.90,South,173,1.0,10.0,93,0.00,BKN,,0.19,WeatherDisplay:10.37,2013-01-31 13:45:00,
2013-01-31 08:50:00,54.4,52.7,28.91,South,182,3.0,12.0,94,0.00,BKN,,0.19,WeatherDisplay:10.37,2013-01-31 13:50:00,
2013-01-31 08:55:00,54.4,52.4,28.91,South,183,1.0,7.0,93,0.00,BKN,,0.19,WeatherDisplay:10.37,2013-01-31 13:55:00,
2013-01-31 09:00:00,54.5,52.5,28.90,South,183,5.0,17.0,93,0.00,BKN,,0.19,WeatherDisplay:10.37,2013-01-31 14:00:00,
2013-01-31 09:05:00,54.8,52.5,28.90,South,187,5.0,12.0,92,0.00,BKN,,0.19,WeatherDisplay:10.37,2013-01-31 14:05:00,
2013-01-31 09:10:00,54.6,50.8,28.95,WSW,240,9.0,17.0,87,0.03,RA,,0.22,WeatherDisplay:10.37,2013-01-31 14:10:00,
2013-01-31 09:15:00,52.0,46.7,28.96,West,277,6.0,15.0,82,0.01,RA,,0.23,WeatherDisplay:10.37,2013-01-31 14:15:00,
2013-01-31 09:20:00,49.3,45.0,28.98,WSW,255,2.0,15.0,85,0.00, +RA,,0.23,WeatherDisplay:10.37,2013-01-31 14:20:00,
2013-01-31 09:25:00,47.6,43.3,29.00,SW,227,6.0,12.0,85,0.00, +RA,,0.23,WeatherDisplay:10.37,2013-01-31 14:25:00,
2013-01-31 09:30:00,46.3,42.7,29.00,WSW,247,2.0,12.0,87,0.01, +RA,,0.24,WeatherDisplay:10.37,2013-01-31 14:30:00,
2013-01-31 09:35:00,45.5,42.5,29.01,WSW,251,3.0,8.0,89,0.00,-RA,,0.24,WeatherDisplay:10.37,2013-01-31 14:35:00,
2013-01-31 09:40:00,44.8,41.8,29.02,WSW,238,2.0,6.0,89,0.00,-RA,,0.24,WeatherDisplay:10.37,2013-01-31 14:40:00,
2013-01-31 09:45:00,44.3,41.3,29.02,WSW,254,5.0,14.0,89,0.00,-RA,,0.24,WeatherDisplay:10.37,2013-01-31 14:45:00,
2013-01-31 09:50:00,44.0,40.7,29.03,WSW,254,5.0,15.0,88,0.00,-RA,,0.24,WeatherDisplay:10.37,2013-01-31 14:50:00,
2013-01-31 09:55:00,43.6,40.3,29.04,WSW,241,3.0,8.0,88,0.00,-RA,,0.24,WeatherDisplay:10.37,2013-01-31 14:55:00,
2013-01-31 10:05:00,43.1,39.2,29.04,West,267,2.0,13.0,86,0.00,-RA,,0.24,WeatherDisplay:10.37,2013-01-31 15:05:00,
2013-01-31 10:10:00,42.8,39.2,29.06,West,273,1.0,8.0,87,0.00,-RA,,0.24,WeatherDisplay:10.37,2013-01-31 15:10:00,
2013-01-31 10:15:00,42.4,39.4,29.05,West,266,2.0,5.0,89,0.01,-RA,,0.25,WeatherDisplay:10.37,2013-01-31 15:15:00,
2013-01-31 10:20:00,42.0,38.7,29.05,West,270,0.0,4.0,88,0.00,-RA,,0.25,WeatherDisplay:10.37,2013-01-31 15:20:00,
2013-01-31 10:25:00,41.6,38.9,29.05,West,264,0.0,3.0,90,0.00,-RA,,0.25,WeatherDisplay:10.37,2013-01-31 15:25:00,
2013-01-31 10:30:00,41.5,39.0,29.05,West,271,1.0,4.0,91,0.00,-RA,,0.25,WeatherDisplay:10.37,2013-01-31 15:30:00,
2013-01-31 10:35:00,41.4,39.3,29.05,West,273,1.0,5.0,92,0.00,-RA,,0.25,WeatherDisplay:10.37,2013-01-31 15:35:00,
2013-01-31 10:40:00,41.5,39.6,29.06,WSW,254,1.0,5.0,93,0.00,-RA,,0.25,WeatherDisplay:10.37,2013-01-31 15:40:00,
2013-01-31 10:45:00,41.6,38.9,29.06,WSW,252,0.0,5.0,90,0.00,-RA,,0.25,WeatherDisplay:10.37,2013-01-31 15:45:00,
2013-01-31 10:50:00,41.9,38.9,29.07,West,266,1.0,6.0,89,0.00,-RA,,0.25,WeatherDisplay:10.37,2013-01-31 15:50:00,
2013-01-31 10:55:00,42.2,38.9,29.07,West,263,1.0,7.0,88,0.00,-RA,,0.25,WeatherDisplay:10.37,2013-01-31 15:55:00,
2013-01-31 11:00:00,42.4,38.5,29.08,SW,225,1.0,6.0,86,0.00,-RA,,0.25,WeatherDisplay:10.37,2013-01-31 16:00:00,
2013-01-31 11:05:00,42.8,38.3,29.09,SW,235,5.0,9.0,84,0.00,SCT,,0.25,WeatherDisplay:10.37,2013-01-31 16:05:00,
2013-01-31 11:10:00,43.1,38.3,29.09,WSW,247,2.0,6.0,83,0.00,SCT,,0.25,WeatherDisplay:10.37,2013-01-31 16:10:00,
2013-01-31 11:15:00,43.4,38.0,29.09,WSW,250,3.0,8.0,81,0.00,SCT,,0.25,WeatherDisplay:10.37,2013-01-31 16:15:00,
2013-01-31 11:20:00,43.6,37.2,29.10,WSW,242,2.0,9.0,78,0.00,SCT,,0.25,WeatherDisplay:10.37,2013-01-31 16:20:00,
2013-01-31 11:25:00,43.8,37.7,29.10,WSW,257,3.0,12.0,79,0.00,SCT,,0.25,WeatherDisplay:10.37,2013-01-31 16:25:00,
2013-01-31 11:30:00,44.1,36.3,29.11,WSW,250,6.0,12.0,74,0.00,SCT,,0.25,WeatherDisplay:10.37,2013-01-31 16:30:00,
2013-01-31 11:35:00,43.9,34.7,29.11,SW,217,2.0,15.0,70,0.00,SCT,,0.25,WeatherDisplay:10.37,2013-01-31 16:35:00,
2013-01-31 11:40:00,43.9,33.6,29.12,SW,223,3.0,15.0,67,0.00,SCT,,0.25,WeatherDisplay:10.37,2013-01-31 16:40:00,
2013-01-31 11:45:00,44.1,34.9,29.12,WSW,258,5.0,14.0,70,0.00,SCT,,0.25,WeatherDisplay:10.37,2013-01-31 16:45:00,
2013-01-31 11:50:00,44.3,34.8,29.11,WSW,257,1.0,8.0,69,0.00,SCT,,0.25,WeatherDisplay:10.37,2013-01-31 16:50:00,
2013-01-31 11:55:00,44.6,34.3,29.12,SW,231,3.0,13.0,67,0.00,SCT,,0.25,WeatherDisplay:10.37,2013-01-31 16:55:00,
2013-01-31 12:00:00,44.6,33.2,29.12,SW,225,2.0,12.0,64,0.00,SCT,,0.25,WeatherDisplay:10.37,2013-01-31 17:00:00,
2013-01-31 12:05:00,44.4,31.8,29.13,WSW,249,8.0,18.0,61,0.00,BKN,,0.25,WeatherDisplay:10.37,2013-01-31 17:05:00,
2013-01-31 12:10:00,44.0,30.2,29.14,WSW,243,8.0,16.0,58,0.00,BKN,,0.25,WeatherDisplay:10.37,2013-01-31 17:10:00,
2013-01-31 12:15:00,43.7,29.8,29.15,SW,236,5.0,14.0,58,0.00,BKN,,0.25,WeatherDisplay:10.37,2013-01-31 17:15:00,
2013-01-31 12:20:00,43.3,29.1,29.15,WSW,241,5.0,17.0,57,0.00,BKN,,0.25,WeatherDisplay:10.37,2013-01-31 17:20:00,
2013-01-31 12:25:00,43.1,28.9,29.15,West,264,6.0,17.0,57,0.00,BKN,,0.25,WeatherDisplay:10.37,2013-01-31 17:25:00,
2013-01-31 12:30:00,42.9,27.8,29.15,West,278,6.0,18.0,55,0.00,BKN,,0.25,WeatherDisplay:10.37,2013-01-31 17:30:00,
2013-01-31 12:35:00,42.7,28.1,29.15,West,279,6.0,16.0,56,0.00,BKN,,0.25,WeatherDisplay:10.37,2013-01-31 17:35:00,
2013-01-31 12:40:00,42.8,27.7,29.15,West,269,5.0,22.0,55,0.00,BKN,,0.25,WeatherDisplay:10.37,2013-01-31 17:40:00,
2013-01-31 12:45:00,43.1,28.0,29.16,WSW,253,7.0,20.0,55,0.00,BKN,,0.25,WeatherDisplay:10.37,2013-01-31 17:45:00,
2013-01-31 12:50:00,43.2,27.7,29.16,West,264,8.0,12.0,54,0.00,BKN,,0.25,WeatherDisplay:10.37,2013-01-31 17:50:00,
2013-01-31 12:55:00,43.4,26.9,29.16,WSW,247,5.0,10.0,52,0.00,BKN,,0.25,WeatherDisplay:10.37,2013-01-31 17:55:00,
2013-01-31 13:00:00,43.6,27.1,29.16,WNW,293,3.0,14.0,52,0.00,BKN,,0.25,WeatherDisplay:10.37,2013-01-31 18:00:00,
2013-01-31 13:05:00,43.8,27.8,29.17,WNW,296,5.0,12.0,53,0.00,BKN,,0.25,WeatherDisplay:10.37,2013-01-31 18:05:00,
2013-01-31 13:10:00,43.6,27.1,29.17,West,262,3.0,14.0,52,0.00,BKN,,0.25,WeatherDisplay:10.37,2013-01-31 18:10:00,
2013-01-31 13:15:00,43.1,26.6,29.17,West,262,6.0,12.0,52,0.00,BKN,,0.25,WeatherDisplay:10.37,2013-01-31 18:15:00,
2013-01-31 13:20:00,42.6,25.7,29.18,West,261,5.0,9.0,51,0.00,FEW,,0.25,WeatherDisplay:10.37,2013-01-31 18:20:00,
2013-01-31 13:25:00,42.2,24.9,29.18,WSW,248,8.0,13.0,50,0.00,FEW,,0.25,WeatherDisplay:10.37,2013-01-31 18:25:00,
2013-01-31 13:30:00,42.1,25.2,29.19,WSW,248,6.0,17.0,51,0.00,FEW,,0.25,WeatherDisplay:10.37,2013-01-31 18:30:00,
2013-01-31 13:35:00,42.3,25.9,29.19,WSW,253,1.0,13.0,52,0.00,FEW,,0.25,WeatherDisplay:10.37,2013-01-31 18:35:00,
2013-01-31 13:40:00,42.6,25.3,29.19,West,274,3.0,10.0,50,0.00,FEW,,0.25,WeatherDisplay:10.37,2013-01-31 18:40:00,
2013-01-31 13:45:00,42.8,24.9,29.19,West,278,2.0,20.0,49,0.00,FEW,,0.25,WeatherDisplay:10.37,2013-01-31 18:45:00,
2013-01-31 13:50:00,42.8,24.4,29.20,West,274,5.0,13.0,48,0.00,FEW,,0.25,WeatherDisplay:10.37,2013-01-31 18:50:00,
2013-01-31 13:55:00,42.6,23.8,29.20,WSW,245,7.0,22.0,47,0.00,FEW,,0.25,WeatherDisplay:10.37,2013-01-31 18:55:00,
2013-01-31 14:00:00,42.4,24.1,29.21,SW,224,5.0,14.0,48,0.00,FEW,,0.25,WeatherDisplay:10.37,2013-01-31 19:00:00,
2013-01-31 14:05:00,42.0,23.2,29.21,SW,225,2.0,12.0,47,0.00,SCT,,0.25,WeatherDisplay:10.37,2013-01-31 19:05:00,
2013-01-31 14:10:00,41.9,23.1,29.22,WSW,248,6.0,20.0,47,0.00,SCT,,0.25,WeatherDisplay:10.37,2013-01-31 19:10:00,
2013-01-31 14:15:00,41.7,22.9,29.22,West,273,7.0,13.0,47,0.00,SCT,,0.25,WeatherDisplay:10.37,2013-01-31 19:15:00,
2013-01-31 14:20:00,41.5,21.7,29.22,West,278,5.0,16.0,45,0.00,SCT,,0.25,WeatherDisplay:10.37,2013-01-31 19:20:00,
2013-01-31 14:25:00,41.4,22.7,29.22,West,275,3.0,13.0,47,0.00,SCT,,0.25,WeatherDisplay:10.37,2013-01-31 19:25:00,
2013-01-31 14:30:00,41.3,22.6,29.23,WNW,283,3.0,9.0,47,0.00,SCT,,0.25,WeatherDisplay:10.37,2013-01-31 19:30:00,
2013-01-31 14:35:00,41.2,22.0,29.23,WNW,287,5.0,12.0,46,0.00,SCT,,0.25,WeatherDisplay:10.37,2013-01-31 19:35:00,
2013-01-31 14:40:00,41.1,22.9,29.23,WNW,287,2.0,12.0,48,0.00,SCT,,0.25,WeatherDisplay:10.37,2013-01-31 19:40:00,
2013-01-31 14:45:00,41.1,22.9,29.24,WNW,301,6.0,12.0,48,0.00,SCT,,0.25,WeatherDisplay:10.37,2013-01-31 19:45:00,
2013-01-31 14:50:00,41.0,21.8,29.25,West,278,5.0,22.0,46,0.00,SCT,,0.25,WeatherDisplay:10.37,2013-01-31 19:50:00,
2013-01-31 14:55:00,40.7,21.5,29.26,West,262,3.0,24.0,46,0.00,SCT,,0.25,WeatherDisplay:10.37,2013-01-31 19:55:00,
2013-01-31 15:00:00,40.2,21.6,29.26,WSW,255,5.0,12.0,47,0.00,SCT,,0.25,WeatherDisplay:10.37,2013-01-31 20:00:00,
2013-01-31 15:05:00,39.8,20.7,29.26,West,265,5.0,18.0,46,0.00,SCT,,0.25,WeatherDisplay:10.37,2013-01-31 20:05:00,
2013-01-31 15:10:00,39.7,21.0,29.28,West,270,6.0,20.0,47,0.00,SCT,,0.25,WeatherDisplay:10.37,2013-01-31 20:10:00,
2013-01-31 15:15:00,39.5,20.9,29.28,SW,236,9.0,18.0,47,0.00,SCT,,0.25,WeatherDisplay:10.37,2013-01-31 20:15:00,
2013-01-31 15:20:00,39.4,20.3,29.28,SW,236,6.0,12.0,46,0.00,FEW,,0.25,WeatherDisplay:10.37,2013-01-31 20:20:00,
2013-01-31 15:25:00,39.4,19.8,29.29,SW,234,6.0,17.0,45,0.00,FEW,,0.25,WeatherDisplay:10.37,2013-01-31 20:25:00,
2013-01-31 15:30:00,39.2,20.1,29.29,West,264,5.0,15.0,46,0.00,FEW,,0.25,WeatherDisplay:10.37,2013-01-31 20:30:00,
2013-01-31 15:35:00,39.1,20.5,29.30,West,275,6.0,12.0,47,0.00,FEW,,0.25,WeatherDisplay:10.37,2013-01-31 20:35:00,
2013-01-31 15:40:00,38.9,19.9,29.30,West,264,3.0,9.0,46,0.00,FEW,,0.25,WeatherDisplay:10.37,2013-01-31 20:40:00,
2013-01-31 15:45:00,38.8,20.3,29.30,WSW,257,5.0,10.0,47,0.00,FEW,,0.25,WeatherDisplay:10.37,2013-01-31 20:45:00,
2013-01-31 15:50:00,38.7,21.1,29.31,WSW,237,6.0,14.0,49,0.00,FEW,,0.25,WeatherDisplay:10.37,2013-01-31 20:50:00,
2013-01-31 15:55:00,38.5,20.5,29.31,WSW,240,6.0,10.0,48,0.00,FEW,,0.25,WeatherDisplay:10.37,2013-01-31 20:55:00,
2013-01-31 16:00:00,38.3,20.3,29.31,West,268,3.0,17.0,48,0.00,FEW,,0.25,WeatherDisplay:10.37,2013-01-31 21:00:00,
2013-01-31 16:05:00,38.1,20.6,29.32,West,274,2.0,6.0,49,0.00,SCT,,0.25,WeatherDisplay:10.37,2013-01-31 21:05:00,
2013-01-31 16:10:00,37.8,20.8,29.32,West,262,3.0,7.0,50,0.00,SCT,,0.25,WeatherDisplay:10.37,2013-01-31 21:10:00,
2013-01-31 16:15:00,37.5,21.0,29.32,West,274,6.0,12.0,51,0.00,SCT,,0.25,WeatherDisplay:10.37,2013-01-31 21:15:00,
2013-01-31 16:20:00,37.3,20.3,29.33,WNW,286,3.0,12.0,50,0.00,SCT,,0.25,WeatherDisplay:10.37,2013-01-31 21:20:00,
2013-01-31 16:25:00,37.1,20.2,29.33,West,271,3.0,10.0,50,0.00,SCT,,0.25,WeatherDisplay:10.37,2013-01-31 21:25:00,
2013-01-31 16:30:00,37.1,20.2,29.33,WNW,285,3.0,13.0,50,0.00,SCT,,0.25,WeatherDisplay:10.37,2013-01-31 21:30:00,
2013-01-31 16:35:00,37.1,20.1,29.33,WNW,293,3.0,16.0,50,0.00,SCT,,0.25,WeatherDisplay:10.37,2013-01-31 21:35:00,
2013-01-31 16:40:00,37.0,20.1,29.33,WNW,301,2.0,12.0,50,0.00,SCT,,0.25,WeatherDisplay:10.37,2013-01-31 21:40:00,
2013-01-31 16:45:00,36.9,20.0,29.34,West,263,2.0,10.0,50,0.00,SCT,,0.25,WeatherDisplay:10.37,2013-01-31 21:45:00,
2013-01-31 16:50:00,36.9,20.4,29.34,West,260,2.0,13.0,51,0.00,SCT,,0.25,WeatherDisplay:10.37,2013-01-31 21:50:00,
2013-01-31 16:55:00,36.8,20.3,29.35,West,272,6.0,12.0,51,0.00,SCT,,0.25,WeatherDisplay:10.37,2013-01-31 21:55:00,
2013-01-31 17:00:00,36.7,20.3,29.35,WSW,256,5.0,18.0,51,0.00,SCT,,0.25,WeatherDisplay:10.37,2013-01-31 22:00:00,
2013-01-31 17:05:00,36.6,21.0,29.35,WSW,240,7.0,22.0,53,0.00,SCT,,0.25,WeatherDisplay:10.37,2013-01-31 22:05:00,
2013-01-31 17:10:00,36.4,20.9,29.36,West,280,5.0,12.0,53,0.00,SCT,,0.25,WeatherDisplay:10.37,2013-01-31 22:10:00,
2013-01-31 17:15:00,36.1,21.1,29.36,West,270,2.0,12.0,54,0.00,SCT,,0.25,WeatherDisplay:10.37,2013-01-31 22:15:00,
2013-01-31 17:20:00,35.9,20.4,29.36,WSW,243,2.0,12.0,53,0.00,BKN,,0.25,WeatherDisplay:10.37,2013-01-31 22:20:00,
2013-01-31 17:25:00,35.7,21.1,29.37,West,271,2.0,12.0,55,0.00,BKN,,0.25,WeatherDisplay:10.37,2013-01-31 22:25:00,
2013-01-31 17:30:00,35.6,20.6,29.37,West,260,2.0,9.0,54,0.00,BKN,,0.25,WeatherDisplay:10.37,2013-01-31 22:30:00,
2013-01-31 17:35:00,35.5,20.9,29.37,WSW,240,1.0,10.0,55,0.00,BKN,,0.25,WeatherDisplay:10.37,2013-01-31 22:35:00,
2013-01-31 17:40:00,35.4,20.8,29.37,WSW,240,5.0,15.0,55,0.00,BKN,,0.25,WeatherDisplay:10.37,2013-01-31 22:40:00,
2013-01-31 17:45:00,35.3,19.9,29.38,WSW,249,3.0,7.0,53,0.00,BKN,,0.25,WeatherDisplay:10.37,2013-01-31 22:45:00,
2013-01-31 17:50:00,35.3,20.3,29.38,West,261,3.0,8.0,54,0.00,BKN,,0.25,WeatherDisplay:10.37,2013-01-31 22:50:00,
2013-01-31 17:55:00,35.2,20.6,29.39,WSW,240,5.0,9.0,55,0.00,BKN,,0.25,WeatherDisplay:10.37,2013-01-31 22:55:00,
2013-01-31 18:00:00,35.2,20.6,29.39,WSW,246,3.0,7.0,55,0.00,BKN,,0.25,WeatherDisplay:10.37,2013-01-31 23:00:00,
2013-01-31 18:05:00,35.2,19.8,29.39,WSW,243,3.0,12.0,53,0.00,BKN,,0.25,WeatherDisplay:10.37,2013-01-31 23:05:00,
2013-01-31 18:10:00,35.2,19.3,29.40,SW,235,2.0,12.0,52,0.00,BKN,,0.25,WeatherDisplay:10.37,2013-01-31 23:10:00,
2013-01-31 18:20:00,35.3,19.4,29.40,WSW,251,2.0,5.0,52,0.00,BKN,,0.25,WeatherDisplay:10.37,2013-01-31 23:20:00,
2013-01-31 18:25:00,35.2,17.9,29.40,West,265,1.0,8.0,49,0.00,BKN,,0.25,WeatherDisplay:10.37,2013-01-31 23:25:00,
2013-01-31 18:30:00,35.1,18.3,29.42,WSW,256,7.0,16.0,50,0.00,BKN,,0.25,WeatherDisplay:10.37,2013-01-31 23:30:00,
2013-01-31 18:35:00,35.0,17.7,29.42,WSW,238,3.0,13.0,49,0.00,BKN,,0.25,WeatherDisplay:10.37,2013-01-31 23:35:00,
2013-01-31 18:40:00,34.9,17.7,29.42,WSW,257,3.0,13.0,49,0.00,BKN,,0.25,WeatherDisplay:10.37,2013-01-31 23:40:00,
2013-01-31 18:45:00,34.6,18.3,29.42,West,261,1.0,15.0,51,0.00,BKN,,0.25,WeatherDisplay:10.37,2013-01-31 23:45:00,
2013-01-31 18:50:00,34.4,18.6,29.42,WSW,253,3.0,12.0,52,0.00,BKN,,0.25,WeatherDisplay:10.37,2013-01-31 23:50:00,
2013-01-31 18:55:00,34.2,18.4,29.42,WSW,249,3.0,6.0,52,0.00,BKN,,0.25,WeatherDisplay:10.37,2013-01-31 23:55:00,
2013-01-31 19:00:00,34.1,19.1,29.42,WSW,247,3.0,8.0,54,0.00,BKN,,0.25,WeatherDisplay:10.37,2013-02-01 00:00:00,
2013-01-31 19:05:00,33.9,18.6,29.43,WSW,252,3.0,7.0,53,0.00,BKN,,0.25,WeatherDisplay:10.37,2013-02-01 00:05:00,
2013-01-31 19:10:00,33.9,18.1,29.43,SW,228,2.0,14.0,52,0.00,BKN,,0.25,WeatherDisplay:10.37,2013-02-01 00:10:00,
2013-01-31 19:20:00,33.8,18.9,29.44,SW,222,3.0,7.0,54,0.00,FEW,,0.25,WeatherDisplay:10.37,2013-02-01 00:20:00,
2013-01-31 19:25:00,33.7,18.4,29.44,WSW,240,5.0,8.0,53,0.00,FEW,,0.25,WeatherDisplay:10.37,2013-02-01 00:25:00,
2013-01-31 19:30:00,33.7,18.4,29.44,SW,226,0.0,20.0,53,0.00,FEW,,0.25,WeatherDisplay:10.37,2013-02-01 00:30:00,
2013-01-31 19:35:00,33.6,18.3,29.45,SW,218,2.0,7.0,53,0.00,FEW,,0.25,WeatherDisplay:10.37,2013-02-01 00:35:00,
2013-01-31 19:40:00,33.5,18.6,29.45,SW,234,5.0,9.0,54,0.00,FEW,,0.25,WeatherDisplay:10.37,2013-02-01 00:40:00,
2013-01-31 19:45:00,33.5,18.2,29.45,WSW,239,3.0,13.0,53,0.00,FEW,,0.25,WeatherDisplay:10.37,2013-02-01 00:45:00,
2013-01-31 19:50:00,33.4,18.5,29.46,SW,228,7.0,13.0,54,0.00,FEW,,0.25,WeatherDisplay:10.37,2013-02-01 00:50:00,
2013-01-31 19:55:00,33.3,18.0,29.46,WSW,241,3.0,9.0,53,0.00,FEW,,0.25,WeatherDisplay:10.37,2013-02-01 00:55:00,
2013-01-31 20:00:00,33.2,18.7,29.46,West,259,6.0,20.0,55,0.00,FEW,,0.25,WeatherDisplay:10.37,2013-02-01 01:00:00,
2013-01-31 20:05:00,33.0,17.7,29.46,West,266,3.0,10.0,53,0.00,FEW,,0.25,WeatherDisplay:10.37,2013-02-01 01:05:00,
2013-01-31 20:10:00,32.8,17.5,29.47,West,265,2.0,6.0,53,0.00,FEW,,0.25,WeatherDisplay:10.37,2013-02-01 01:10:00,
2013-01-31 20:15:00,32.6,17.3,29.47,WSW,240,5.0,10.0,53,0.00,FEW,,0.25,WeatherDisplay:10.37,2013-02-01 01:15:00,
2013-01-31 20:20:00,32.5,16.8,29.47,WSW,252,3.0,13.0,52,0.00,SCT,,0.25,WeatherDisplay:10.37,2013-02-01 01:20:00,
2013-01-31 20:25:00,32.4,17.1,29.47,WSW,249,1.0,4.0,53,0.00,SCT,,0.25,WeatherDisplay:10.37,2013-02-01 01:25:00,
2013-01-31 20:30:00,32.2,16.5,29.47,WSW,243,6.0,12.0,52,0.00,SCT,,0.25,WeatherDisplay:10.37,2013-02-01 01:30:00,
2013-01-31 20:35:00,32.1,16.4,29.48,WSW,257,2.0,8.0,52,0.00,SCT,,0.25,WeatherDisplay:10.37,2013-02-01 01:35:00,
2013-01-31 20:40:00,32.0,16.8,29.48,WNW,287,5.0,14.0,53,0.00,SCT,,0.25,WeatherDisplay:10.37,2013-02-01 01:40:00,
2013-01-31 20:45:00,31.9,17.1,29.48,West,270,1.0,8.0,54,0.00,SCT,,0.25,WeatherDisplay:10.37,2013-02-01 01:45:00,
2013-01-31 20:50:00,31.7,17.8,29.49,SW,230,3.0,13.0,56,0.00,SCT,,0.25,WeatherDisplay:10.37,2013-02-01 01:50:00,
2013-01-31 20:55:00,31.6,17.7,29.49,SW,220,1.0,12.0,56,0.00,SCT,,0.25,WeatherDisplay:10.37,2013-02-01 01:55:00,
2013-01-31 21:00:00,31.5,18.0,29.49,SW,223,0.0,6.0,57,0.00,SCT,,0.25,WeatherDisplay:10.37,2013-02-01 02:00:00,
2013-01-31 21:05:00,31.4,17.5,29.49,WSW,256,2.0,17.0,56,0.00,SCT,,0.25,WeatherDisplay:10.37,2013-02-01 02:05:00,
2013-01-31 21:10:00,31.3,17.4,29.50,West,265,1.0,12.0,56,0.00,SCT,,0.25,WeatherDisplay:10.37,2013-02-01 02:10:00,
2013-01-31 21:15:00,31.2,16.5,29.50,WSW,238,1.0,9.0,54,0.00,SCT,,0.25,WeatherDisplay:10.37,2013-02-01 02:15:00,
2013-01-31 21:20:00,31.2,16.5,29.50,WSW,246,1.0,9.0,54,0.00,SCT,,0.25,WeatherDisplay:10.37,2013-02-01 02:20:00,
2013-01-31 21:25:00,31.0,16.3,29.51,WSW,253,2.0,15.0,54,0.00,SCT,,0.25,WeatherDisplay:10.37,2013-02-01 02:25:00,
2013-01-31 21:30:00,31.0,17.1,29.51,WSW,241,1.0,6.0,56,0.00,SCT,,0.25,WeatherDisplay:10.37,2013-02-01 02:30:00,
2013-01-31 21:35:00,30.8,16.5,29.51,SW,224,2.0,8.0,55,0.00,SCT,,0.25,WeatherDisplay:10.37,2013-02-01 02:35:00,
2013-01-31 21:40:00,30.7,16.4,29.51,WSW,242,7.0,16.0,55,0.00,SCT,,0.25,WeatherDisplay:10.37,2013-02-01 02:40:00,
2013-01-31 21:45:00,30.7,16.4,29.51,WSW,241,2.0,10.0,55,0.00,SCT,,0.25,WeatherDisplay:10.37,2013-02-01 02:45:00,
2013-01-31 21:50:00,30.5,16.3,29.51,WSW,256,1.0,12.0,55,0.00,SCT,,0.25,WeatherDisplay:10.37,2013-02-01 02:50:00,
2013-01-31 21:55:00,30.5,16.2,29.51,WSW,245,3.0,9.0,55,0.00,SCT,,0.25,WeatherDisplay:10.37,2013-02-01 02:55:00,
2013-01-31 22:00:00,30.4,16.1,29.51,SW,230,3.0,10.0,55,0.00,SCT,,0.25,WeatherDisplay:10.37,2013-02-01 03:00:00,
2013-01-31 22:05:00,30.3,16.0,29.51,SW,221,1.0,6.0,55,0.00,SCT,,0.25,WeatherDisplay:10.37,2013-02-01 03:05:00,
2013-01-31 22:10:00,30.2,16.4,29.52,WSW,237,1.0,6.0,56,0.00,SCT,,0.25,WeatherDisplay:10.37,2013-02-01 03:10:00,
2013-01-31 22:15:00,30.1,15.9,29.52,SW,236,2.0,12.0,55,0.00,SCT,,0.25,WeatherDisplay:10.37,2013-02-01 03:15:00,
2013-01-31 22:20:00,30.2,15.5,29.52,SW,226,1.0,14.0,54,0.00,FEW,,0.25,WeatherDisplay:10.37,2013-02-01 03:20:00,
2013-01-31 22:25:00,30.2,15.9,29.52,SW,221,2.0,6.0,55,0.00,FEW,,0.25,WeatherDisplay:10.37,2013-02-01 03:25:00,
2013-01-31 22:30:00,30.0,16.2,29.52,SSW,206,1.0,6.0,56,0.00,FEW,,0.25,WeatherDisplay:10.37,2013-02-01 03:30:00,
2013-01-31 22:35:00,29.9,16.1,29.52,SSW,193,3.0,6.0,56,0.00,FEW,,0.25,WeatherDisplay:10.37,2013-02-01 03:35:00,
2013-01-31 22:40:00,29.9,16.1,29.52,SW,215,1.0,6.0,56,0.00,FEW,,0.25,WeatherDisplay:10.37,2013-02-01 03:40:00,
2013-01-31 22:45:00,29.9,16.1,29.53,SW,234,1.0,7.0,56,0.00,FEW,,0.25,WeatherDisplay:10.37,2013-02-01 03:45:00,
2013-01-31 22:50:00,29.9,15.7,29.53,SW,230,2.0,5.0,55,0.00,FEW,,0.25,WeatherDisplay:10.37,2013-02-01 03:50:00,
2013-01-31 22:55:00,29.9,16.1,29.53,SW,217,1.0,5.0,56,0.00,FEW,,0.25,WeatherDisplay:10.37,2013-02-01 03:55:00,
2013-01-31 23:05:00,29.8,16.0,29.53,WSW,240,2.0,7.0,56,0.00,FEW,,0.25,WeatherDisplay:10.37,2013-02-01 04:05:00,
2013-01-31 23:10:00,29.7,16.7,29.53,SSW,210,2.0,7.0,58,0.00,FEW,,0.25,WeatherDisplay:10.37,2013-02-01 04:10:00,
2013-01-31 23:15:00,29.5,16.1,29.53,SW,220,3.0,7.0,57,0.00,FEW,,0.25,WeatherDisplay:10.37,2013-02-01 04:15:00,
2013-01-31 23:20:00,29.5,16.5,29.53,SW,214,0.0,4.0,58,0.00,CLR,,0.25,WeatherDisplay:10.37,2013-02-01 04:20:00,
2013-01-31 23:25:00,29.4,16.0,29.53,SSW,207,1.0,5.0,57,0.00,CLR,,0.25,WeatherDisplay:10.37,2013-02-01 04:25:00,
2013-01-31 23:30:00,29.4,16.4,29.53,SW,230,2.0,4.0,58,0.00,CLR,,0.25,WeatherDisplay:10.37,2013-02-01 04:30:00,
2013-01-31 23:35:00,29.3,15.5,29.53,SW,221,0.0,8.0,56,0.00,CLR,,0.25,WeatherDisplay:10.37,2013-02-01 04:35:00,
2013-01-31 23:40:00,29.3,15.5,29.54,SW,214,5.0,7.0,56,0.00,CLR,,0.25,WeatherDisplay:10.37,2013-02-01 04:40:00,
2013-01-31 23:45:00,29.3,15.5,29.54,WSW,245,2.0,6.0,56,0.00,CLR,,0.25,WeatherDisplay:10.37,2013-02-01 04:45:00,
2013-01-31 23:50:00,29.3,15.5,29.54,SW,231,2.0,10.0,56,0.00,CLR,,0.25,WeatherDisplay:10.37,2013-02-01 04:50:00,
2013-01-31 23:55:00,29.2,15.8,29.54,WSW,239,2.0,8.0,57,0.00,CLR,,0.25,WeatherDisplay:10.37,2013-02-01 04:55:00,